Flight Track Log - Related Links

Times and Time Zones

All times are in EDT time to prevent confusion due to time zone crossing. See the KYV8258 flight status page for this flight to view local times or setup timezone preferences in your user account.

Time Position Orientation Groundspeed Altitude Reporting Facility
EDT Latitude Longitude Course Direction KTS MPH feet Rate Location/Type
Tue 11:24:00 AM 22.5313 101.1374 32° Northeast  Level Estimated
Tue 11:25:00 AM 22.6010 101.1848 32° Northeast  Level Estimated
Tue 11:26:00 AM 22.6706 101.2323 32° Northeast  Level Estimated
Tue 11:27:00 AM 22.7402 101.2798 32° Northeast  Level Estimated
Tue 11:28:00 AM 22.8097 101.3274 32° Northeast  Level Estimated
Tue 11:29:00 AM 22.8793 101.3750 32° Northeast  Level Estimated
Tue 11:30:00 AM 22.9488 101.4227 32° Northeast  Level Estimated
Tue 11:31:00 AM 23.0184 101.4704 32° Northeast  Level Estimated
Tue 11:32:00 AM 23.0879 101.5182 32° Northeast  Level Estimated
Tue 11:33:00 AM 23.1574 101.5660 32° Northeast  Level Estimated
Tue 11:34:00 AM 23.2269 101.6138 32° Northeast  Level Estimated
Tue 11:35:00 AM 23.2963 101.6618 32° Northeast  Level Estimated
Tue 11:36:00 AM 23.3658 101.7097 32° Northeast  Level Estimated
Tue 11:37:00 AM 23.4352 101.7578 32° Northeast  Level Estimated
Tue 11:38:00 AM 23.5047 101.8058 32° Northeast  Level Estimated
Tue 11:39:00 AM 23.5741 101.8539 32° Northeast  Level Estimated
Tue 11:40:00 AM 23.6435 101.9021 32° Northeast  Level Estimated
Tue 11:41:00 AM 23.7129 101.9503 32° Northeast  Level Estimated
Tue 11:42:00 AM 23.7822 101.9986 32° Northeast  Level Estimated
Tue 11:43:00 AM 23.8516 102.0469 33° Northeast  Level Estimated
Tue 11:44:00 AM 23.9209 102.0953 33° Northeast  Level Estimated
Tue 11:45:00 AM 23.9902 102.1438 33° Northeast  Level Estimated
Tue 11:46:00 AM 24.0596 102.1922 33° Northeast  Level Estimated
Tue 11:47:00 AM 24.1289 102.2408 33° Northeast  Level Estimated
Tue 11:48:00 AM 24.1981 102.2894 33° Northeast  Level Estimated
Tue 11:49:00 AM 24.2674 102.3380 33° Northeast  Level Estimated
Tue 11:50:00 AM 24.3366 102.3867 33° Northeast  Level Estimated
Tue 11:51:00 AM 24.4059 102.4354 33° Northeast  Level Estimated
Tue 11:52:00 AM 24.4751 102.4842 33° Northeast  Level Estimated
Tue 11:53:00 AM 24.5443 102.5331 33° Northeast  Level Estimated
Tue 11:54:00 AM 24.6135 102.5820 33° Northeast  Level Estimated
Tue 11:55:00 AM 24.6826 102.6310 33° Northeast  Level Estimated
Tue 11:56:00 AM 24.7518 102.6800 33° Northeast  Level Estimated
Tue 11:57:00 AM 24.8209 102.7290 33° Northeast  Level Estimated
Tue 11:58:00 AM 24.8901 102.7782 33° Northeast  Level Estimated
Tue 11:59:00 AM 24.9592 102.8273 33° Northeast  Level Estimated
Tue 12:00:00 PM 25.0283 102.8766 33° Northeast  Level Estimated
Tue 12:01:00 PM 25.0973 102.9259 33° Northeast  Level Estimated
Tue 12:02:00 PM 25.1019 102.9292 33° Northeast  Level Estimated
Tue 12:03:00 PM 25.1019 102.9292 326° Northwest  Level Estimated
Tue 12:04:00 PM 25.1019 102.9292 326° Northwest  Level Estimated

Login

Don't have an account? Register now (free) for customized features, flight alerts, and more!